sensor_id;sensor_type;location;lat;lon;timestamp;P1;durP1;ratioP1;P2;durP2;ratioP2
78122;SDS011;67376;44.802;10.332;2023-02-14T00:01:44;13.00;;;7.15;;
78122;SDS011;67376;44.802;10.332;2023-02-14T00:04:11;12.63;;;7.55;;
78122;SDS011;67376;44.802;10.332;2023-02-14T00:06:36;11.57;;;8.18;;
78122;SDS011;67376;44.802;10.332;2023-02-14T00:09:12;7.88;;;5.93;;
78122;SDS011;67376;44.802;10.332;2023-02-14T00:11:40;11.60;;;7.05;;
78122;SDS011;67376;44.802;10.332;2023-02-14T00:14:06;10.23;;;6.50;;
78122;SDS011;67376;44.802;10.332;2023-02-14T00:16:50;11.98;;;6.97;;
78122;SDS011;67376;44.802;10.332;2023-02-14T00:19:16;12.00;;;6.47;;
78122;SDS011;67376;44.802;10.332;2023-02-14T00:21:43;10.05;;;6.55;;
78122;SDS011;67376;44.802;10.332;2023-02-14T00:24:10;14.32;;;7.05;;
78122;SDS011;67376;44.802;10.332;2023-02-14T00:26:35;11.57;;;7.43;;
78122;SDS011;67376;44.802;10.332;2023-02-14T00:29:04;13.43;;;7.25;;
78122;SDS011;67376;44.802;10.332;2023-02-14T00:31:31;11.23;;;6.43;;
78122;SDS011;67376;44.802;10.332;2023-02-14T00:33:57;8.98;;;6.35;;
78122;SDS011;67376;44.802;10.332;2023-02-14T00:36:22;10.10;;;6.68;;
78122;SDS011;67376;44.802;10.332;2023-02-14T00:38:47;9.63;;;8.07;;
78122;SDS011;67376;44.802;10.332;2023-02-14T00:41:13;11.57;;;7.07;;
78122;SDS011;67376;44.802;10.332;2023-02-14T00:43:50;9.60;;;7.45;;
78122;SDS011;67376;44.802;10.332;2023-02-14T00:46:17;12.20;;;6.45;;
78122;SDS011;67376;44.802;10.332;2023-02-14T00:48:44;11.27;;;6.78;;
78122;SDS011;67376;44.802;10.332;2023-02-14T00:51:09;11.85;;;7.78;;
78122;SDS011;67376;44.802;10.332;2023-02-14T00:53:35;10.55;;;7.22;;
78122;SDS011;67376;44.802;10.332;2023-02-14T00:56:01;10.63;;;6.90;;
78122;SDS011;67376;44.802;10.332;2023-02-14T00:58:28;10.18;;;6.65;;
78122;SDS011;67376;44.802;10.332;2023-02-14T01:00:53;8.63;;;6.15;;
78122;SDS011;67376;44.802;10.332;2023-02-14T01:03:19;9.48;;;6.10;;
78122;SDS011;67376;44.802;10.332;2023-02-14T01:05:45;8.98;;;6.65;;
78122;SDS011;67376;44.802;10.332;2023-02-14T01:08:11;7.65;;;5.85;;
78122;SDS011;67376;44.802;10.332;2023-02-14T01:10:37;11.07;;;6.15;;
78122;SDS011;67376;44.802;10.332;2023-02-14T01:13:02;11.68;;;6.65;;
78122;SDS011;67376;44.802;10.332;2023-02-14T01:15:28;10.55;;;6.35;;
78122;SDS011;67376;44.802;10.332;2023-02-14T01:17:54;9.52;;;6.30;;
78122;SDS011;67376;44.802;10.332;2023-02-14T01:20:20;8.50;;;6.22;;
78122;SDS011;67376;44.802;10.332;2023-02-14T01:22:45;9.05;;;6.20;;
78122;SDS011;67376;44.802;10.332;2023-02-14T01:25:11;10.27;;;6.30;;
78122;SDS011;67376;44.802;10.332;2023-02-14T01:27:36;10.75;;;6.25;;
78122;SDS011;67376;44.802;10.332;2023-02-14T01:30:02;8.18;;;6.35;;
78122;SDS011;67376;44.802;10.332;2023-02-14T01:32:31;9.45;;;5.63;;
78122;SDS011;67376;44.802;10.332;2023-02-14T01:37:22;8.82;;;6.20;;
78122;SDS011;67376;44.802;10.332;2023-02-14T01:39:48;10.15;;;6.60;;
78122;SDS011;67376;44.802;10.332;2023-02-14T01:42:13;9.57;;;5.97;;
78122;SDS011;67376;44.802;10.332;2023-02-14T01:47:04;10.17;;;6.20;;
78122;SDS011;67376;44.802;10.332;2023-02-14T01:49:43;13.07;;;6.78;;
78122;SDS011;67376;44.802;10.332;2023-02-14T01:54:48;10.00;;;6.43;;
78122;SDS011;67376;44.802;10.332;2023-02-14T01:57:18;9.05;;;5.78;;
78122;SDS011;67376;44.802;10.332;2023-02-14T01:59:48;10.30;;;6.10;;
78122;SDS011;67376;44.802;10.332;2023-02-14T02:02:18;8.75;;;5.55;;
78122;SDS011;67376;44.802;10.332;2023-02-14T02:04:48;10.73;;;6.57;;
78122;SDS011;67376;44.802;10.332;2023-02-14T02:07:18;8.57;;;5.93;;
78122;SDS011;67376;44.802;10.332;2023-02-14T02:09:54;9.40;;;6.25;;
78122;SDS011;67376;44.802;10.332;2023-02-14T02:12:22;8.95;;;6.25;;
78122;SDS011;67376;44.802;10.332;2023-02-14T02:14:49;8.73;;;5.55;;
78122;SDS011;67376;44.802;10.332;2023-02-14T02:22:28;8.15;;;5.65;;
78122;SDS011;67376;44.802;10.332;2023-02-14T02:30:39;9.20;;;5.95;;
78122;SDS011;67376;44.802;10.332;2023-02-14T02:38:55;8.52;;;6.13;;
78122;SDS011;67376;44.802;10.332;2023-02-14T02:50:04;8.07;;;5.13;;
78122;SDS011;67376;44.802;10.332;2023-02-14T02:55:44;8.30;;;5.18;;
78122;SDS011;67376;44.802;10.332;2023-02-14T02:58:43;8.57;;;5.90;;
78122;SDS011;67376;44.802;10.332;2023-02-14T03:01:23;9.63;;;5.85;;
78122;SDS011;67376;44.802;10.332;2023-02-14T03:03:55;9.35;;;5.45;;
78122;SDS011;67376;44.802;10.332;2023-02-14T03:06:43;9.98;;;5.78;;
78122;SDS011;67376;44.802;10.332;2023-02-14T03:09:12;9.88;;;6.28;;
78122;SDS011;67376;44.802;10.332;2023-02-14T03:14:53;10.45;;;5.78;;
78122;SDS011;67376;44.802;10.332;2023-02-14T03:17:36;9.90;;;5.80;;
78122;SDS011;67376;44.802;10.332;2023-02-14T03:22:44;7.78;;;5.28;;
78122;SDS011;67376;44.802;10.332;2023-02-14T03:28:03;8.77;;;5.03;;
78122;SDS011;67376;44.802;10.332;2023-02-14T03:33:45;8.73;;;5.90;;
78122;SDS011;67376;44.802;10.332;2023-02-14T03:36:22;9.18;;;5.72;;
78122;SDS011;67376;44.802;10.332;2023-02-14T03:39:04;9.10;;;5.70;;
78122;SDS011;67376;44.802;10.332;2023-02-14T03:41:36;10.50;;;6.07;;
78122;SDS011;67376;44.802;10.332;2023-02-14T03:44:06;7.50;;;5.07;;
78122;SDS011;67376;44.802;10.332;2023-02-14T03:46:39;8.55;;;5.43;;
78122;SDS011;67376;44.802;10.332;2023-02-14T03:49:11;8.77;;;5.63;;
78122;SDS011;67376;44.802;10.332;2023-02-14T03:51:40;8.57;;;5.15;;
78122;SDS011;67376;44.802;10.332;2023-02-14T03:54:10;8.20;;;5.10;;
78122;SDS011;67376;44.802;10.332;2023-02-14T03:57:00;6.95;;;5.30;;
78122;SDS011;67376;44.802;10.332;2023-02-14T03:59:41;6.72;;;5.10;;
78122;SDS011;67376;44.802;10.332;2023-02-14T04:04:34;8.27;;;5.20;;
78122;SDS011;67376;44.802;10.332;2023-02-14T04:07:09;9.13;;;5.50;;
78122;SDS011;67376;44.802;10.332;2023-02-14T04:09:39;8.25;;;5.97;;
78122;SDS011;67376;44.802;10.332;2023-02-14T04:12:05;8.50;;;5.90;;
78122;SDS011;67376;44.802;10.332;2023-02-14T04:14:31;7.97;;;5.40;;
78122;SDS011;67376;44.802;10.332;2023-02-14T04:16:57;10.77;;;5.90;;
78122;SDS011;67376;44.802;10.332;2023-02-14T04:19:41;9.10;;;5.10;;
78122;SDS011;67376;44.802;10.332;2023-02-14T04:22:06;8.10;;;4.88;;
78122;SDS011;67376;44.802;10.332;2023-02-14T04:24:31;8.65;;;5.65;;
78122;SDS011;67376;44.802;10.332;2023-02-14T04:26:57;8.73;;;5.63;;
78122;SDS011;67376;44.802;10.332;2023-02-14T04:29:35;8.30;;;5.38;;
78122;SDS011;67376;44.802;10.332;2023-02-14T04:32:09;8.40;;;5.60;;
78122;SDS011;67376;44.802;10.332;2023-02-14T04:34:39;7.95;;;5.32;;
78122;SDS011;67376;44.802;10.332;2023-02-14T04:37:05;7.50;;;4.90;;
78122;SDS011;67376;44.802;10.332;2023-02-14T04:39:31;7.00;;;4.70;;
78122;SDS011;67376;44.802;10.332;2023-02-14T04:41:56;8.05;;;5.57;;
78122;SDS011;67376;44.802;10.332;2023-02-14T04:44:22;9.57;;;5.85;;
78122;SDS011;67376;44.802;10.332;2023-02-14T04:46:48;10.90;;;6.25;;
78122;SDS011;67376;44.802;10.332;2023-02-14T04:49:14;6.90;;;4.68;;
78122;SDS011;67376;44.802;10.332;2023-02-14T04:51:40;8.52;;;5.32;;
78122;SDS011;67376;44.802;10.332;2023-02-14T04:54:06;8.80;;;5.15;;
78122;SDS011;67376;44.802;10.332;2023-02-14T04:56:31;8.25;;;5.68;;
78122;SDS011;67376;44.802;10.332;2023-02-14T04:58:56;6.55;;;5.05;;
78122;SDS011;67376;44.802;10.332;2023-02-14T05:01:22;7.15;;;5.07;;
78122;SDS011;67376;44.802;10.332;2023-02-14T05:03:47;6.95;;;4.78;;
78122;SDS011;67376;44.802;10.332;2023-02-14T05:06:13;8.13;;;4.97;;
78122;SDS011;67376;44.802;10.332;2023-02-14T05:08:38;7.90;;;5.47;;
78122;SDS011;67376;44.802;10.332;2023-02-14T05:11:03;7.20;;;5.57;;
78122;SDS011;67376;44.802;10.332;2023-02-14T05:13:29;9.02;;;5.55;;
78122;SDS011;67376;44.802;10.332;2023-02-14T05:15:56;7.25;;;5.32;;
78122;SDS011;67376;44.802;10.332;2023-02-14T05:18:21;7.65;;;5.43;;
78122;SDS011;67376;44.802;10.332;2023-02-14T05:20:50;7.10;;;4.95;;
78122;SDS011;67376;44.802;10.332;2023-02-14T05:23:17;7.68;;;5.43;;
78122;SDS011;67376;44.802;10.332;2023-02-14T05:25:42;8.23;;;5.82;;
78122;SDS011;67376;44.802;10.332;2023-02-14T05:28:08;7.63;;;5.00;;
78122;SDS011;67376;44.802;10.332;2023-02-14T05:30:36;8.25;;;5.65;;
78122;SDS011;67376;44.802;10.332;2023-02-14T05:33:02;8.02;;;5.28;;
78122;SDS011;67376;44.802;10.332;2023-02-14T05:35:28;9.50;;;5.32;;
78122;SDS011;67376;44.802;10.332;2023-02-14T05:37:53;8.02;;;4.88;;
78122;SDS011;67376;44.802;10.332;2023-02-14T05:40:19;8.82;;;5.07;;
78122;SDS011;67376;44.802;10.332;2023-02-14T05:42:44;8.05;;;5.20;;
78122;SDS011;67376;44.802;10.332;2023-02-14T05:45:10;7.05;;;4.82;;
78122;SDS011;67376;44.802;10.332;2023-02-14T05:47:36;7.35;;;5.05;;
78122;SDS011;67376;44.802;10.332;2023-02-14T05:50:02;9.05;;;5.53;;
78122;SDS011;67376;44.802;10.332;2023-02-14T05:52:27;8.55;;;5.15;;
78122;SDS011;67376;44.802;10.332;2023-02-14T05:54:53;7.72;;;4.82;;
78122;SDS011;67376;44.802;10.332;2023-02-14T05:57:18;8.13;;;5.10;;
78122;SDS011;67376;44.802;10.332;2023-02-14T05:59:44;7.32;;;5.20;;
78122;SDS011;67376;44.802;10.332;2023-02-14T06:02:09;8.40;;;4.90;;
78122;SDS011;67376;44.802;10.332;2023-02-14T06:04:34;7.55;;;4.95;;
78122;SDS011;67376;44.802;10.332;2023-02-14T06:07:00;8.93;;;5.50;;
78122;SDS011;67376;44.802;10.332;2023-02-14T06:09:25;7.57;;;5.15;;
78122;SDS011;67376;44.802;10.332;2023-02-14T06:11:51;7.88;;;5.35;;
78122;SDS011;67376;44.802;10.332;2023-02-14T06:14:16;8.45;;;6.15;;
78122;SDS011;67376;44.802;10.332;2023-02-14T06:16:42;7.57;;;5.05;;
78122;SDS011;67376;44.802;10.332;2023-02-14T06:19:07;7.85;;;5.10;;
78122;SDS011;67376;44.802;10.332;2023-02-14T06:21:32;7.97;;;5.63;;
78122;SDS011;67376;44.802;10.332;2023-02-14T06:23:58;7.97;;;5.18;;
78122;SDS011;67376;44.802;10.332;2023-02-14T06:26:23;7.55;;;5.50;;
78122;SDS011;67376;44.802;10.332;2023-02-14T06:28:54;9.00;;;5.13;;
78122;SDS011;67376;44.802;10.332;2023-02-14T06:31:21;8.40;;;5.45;;
78122;SDS011;67376;44.802;10.332;2023-02-14T06:33:47;6.57;;;4.68;;
78122;SDS011;67376;44.802;10.332;2023-02-14T06:36:12;8.13;;;5.03;;
78122;SDS011;67376;44.802;10.332;2023-02-14T06:38:37;9.20;;;5.70;;
78122;SDS011;67376;44.802;10.332;2023-02-14T06:41:04;8.43;;;5.43;;
78122;SDS011;67376;44.802;10.332;2023-02-14T06:43:30;8.32;;;5.00;;
78122;SDS011;67376;44.802;10.332;2023-02-14T06:45:56;11.60;;;5.28;;
78122;SDS011;67376;44.802;10.332;2023-02-14T06:48:21;10.60;;;5.70;;
78122;SDS011;67376;44.802;10.332;2023-02-14T06:50:46;13.38;;;7.60;;
78122;SDS011;67376;44.802;10.332;2023-02-14T06:53:12;22.73;;;11.93;;
78122;SDS011;67376;44.802;10.332;2023-02-14T06:55:37;23.27;;;11.35;;
78122;SDS011;67376;44.802;10.332;2023-02-14T06:58:03;27.95;;;13.98;;
78122;SDS011;67376;44.802;10.332;2023-02-14T07:00:28;26.98;;;12.77;;
78122;SDS011;67376;44.802;10.332;2023-02-14T07:02:53;21.67;;;11.75;;
78122;SDS011;67376;44.802;10.332;2023-02-14T07:05:19;22.85;;;12.13;;
78122;SDS011;67376;44.802;10.332;2023-02-14T07:07:44;22.75;;;11.38;;
78122;SDS011;67376;44.802;10.332;2023-02-14T07:10:10;23.30;;;11.15;;
78122;SDS011;67376;44.802;10.332;2023-02-14T07:12:36;19.73;;;11.38;;
78122;SDS011;67376;44.802;10.332;2023-02-14T07:15:04;21.13;;;11.60;;
78122;SDS011;67376;44.802;10.332;2023-02-14T07:17:33;17.90;;;10.75;;
78122;SDS011;67376;44.802;10.332;2023-02-14T07:19:59;21.38;;;11.65;;
78122;SDS011;67376;44.802;10.332;2023-02-14T07:22:24;15.15;;;9.65;;
78122;SDS011;67376;44.802;10.332;2023-02-14T07:24:50;18.00;;;9.60;;
78122;SDS011;67376;44.802;10.332;2023-02-14T07:27:15;17.10;;;9.35;;
78122;SDS011;67376;44.802;10.332;2023-02-14T07:29:40;17.90;;;9.57;;
78122;SDS011;67376;44.802;10.332;2023-02-14T07:32:06;18.00;;;9.77;;
78122;SDS011;67376;44.802;10.332;2023-02-14T07:34:31;15.25;;;9.57;;
78122;SDS011;67376;44.802;10.332;2023-02-14T07:36:57;18.08;;;9.23;;
78122;SDS011;67376;44.802;10.332;2023-02-14T07:39:22;13.90;;;8.57;;
78122;SDS011;67376;44.802;10.332;2023-02-14T07:41:48;14.95;;;8.18;;
78122;SDS011;67376;44.802;10.332;2023-02-14T07:44:13;15.98;;;8.18;;
78122;SDS011;67376;44.802;10.332;2023-02-14T07:46:39;14.27;;;8.32;;
78122;SDS011;67376;44.802;10.332;2023-02-14T07:49:04;16.65;;;7.60;;
78122;SDS011;67376;44.802;10.332;2023-02-14T07:51:29;12.10;;;7.18;;
78122;SDS011;67376;44.802;10.332;2023-02-14T07:53:55;15.07;;;8.07;;
78122;SDS011;67376;44.802;10.332;2023-02-14T07:56:20;15.60;;;8.23;;
78122;SDS011;67376;44.802;10.332;2023-02-14T07:58:46;13.75;;;7.88;;
78122;SDS011;67376;44.802;10.332;2023-02-14T08:01:13;12.27;;;7.68;;
78122;SDS011;67376;44.802;10.332;2023-02-14T08:03:39;10.32;;;7.35;;
78122;SDS011;67376;44.802;10.332;2023-02-14T08:06:04;15.80;;;7.68;;
78122;SDS011;67376;44.802;10.332;2023-02-14T08:08:30;11.60;;;7.50;;
78122;SDS011;67376;44.802;10.332;2023-02-14T08:10:56;10.85;;;7.63;;
78122;SDS011;67376;44.802;10.332;2023-02-14T08:13:22;16.52;;;7.18;;
78122;SDS011;67376;44.802;10.332;2023-02-14T08:15:47;13.02;;;7.30;;
78122;SDS011;67376;44.802;10.332;2023-02-14T08:18:36;13.45;;;7.25;;
78122;SDS011;67376;44.802;10.332;2023-02-14T08:21:03;11.85;;;7.30;;
78122;SDS011;67376;44.802;10.332;2023-02-14T08:23:30;13.90;;;6.93;;
78122;SDS011;67376;44.802;10.332;2023-02-14T08:25:55;14.45;;;6.35;;
78122;SDS011;67376;44.802;10.332;2023-02-14T08:28:21;12.85;;;6.65;;
78122;SDS011;67376;44.802;10.332;2023-02-14T08:30:47;12.20;;;7.63;;
78122;SDS011;67376;44.802;10.332;2023-02-14T08:33:12;10.85;;;5.88;;
78122;SDS011;67376;44.802;10.332;2023-02-14T08:35:38;9.85;;;6.07;;
78122;SDS011;67376;44.802;10.332;2023-02-14T08:38:03;11.27;;;6.35;;
78122;SDS011;67376;44.802;10.332;2023-02-14T08:40:29;8.88;;;5.53;;
78122;SDS011;67376;44.802;10.332;2023-02-14T08:42:55;11.65;;;6.75;;
78122;SDS011;67376;44.802;10.332;2023-02-14T08:45:21;10.95;;;6.38;;
78122;SDS011;67376;44.802;10.332;2023-02-14T08:47:46;10.80;;;5.60;;
78122;SDS011;67376;44.802;10.332;2023-02-14T08:50:13;10.68;;;6.07;;
78122;SDS011;67376;44.802;10.332;2023-02-14T08:52:40;12.85;;;6.53;;
78122;SDS011;67376;44.802;10.332;2023-02-14T08:55:07;10.80;;;6.80;;
78122;SDS011;67376;44.802;10.332;2023-02-14T08:57:33;11.70;;;6.60;;
78122;SDS011;67376;44.802;10.332;2023-02-14T08:59:58;12.13;;;5.38;;
78122;SDS011;67376;44.802;10.332;2023-02-14T09:02:24;11.38;;;6.13;;
78122;SDS011;67376;44.802;10.332;2023-02-14T09:04:49;11.52;;;5.82;;
78122;SDS011;67376;44.802;10.332;2023-02-14T09:07:14;10.40;;;6.43;;
78122;SDS011;67376;44.802;10.332;2023-02-14T09:09:40;10.75;;;6.68;;
78122;SDS011;67376;44.802;10.332;2023-02-14T09:12:06;9.82;;;6.20;;
78122;SDS011;67376;44.802;10.332;2023-02-14T09:14:39;11.45;;;6.18;;
78122;SDS011;67376;44.802;10.332;2023-02-14T09:17:08;10.43;;;5.95;;
78122;SDS011;67376;44.802;10.332;2023-02-14T09:19:35;10.50;;;6.38;;
78122;SDS011;67376;44.802;10.332;2023-02-14T09:22:02;12.70;;;6.93;;
78122;SDS011;67376;44.802;10.332;2023-02-14T09:24:28;14.52;;;6.32;;
78122;SDS011;67376;44.802;10.332;2023-02-14T09:26:55;11.27;;;6.10;;
78122;SDS011;67376;44.802;10.332;2023-02-14T09:29:22;13.02;;;7.13;;
78122;SDS011;67376;44.802;10.332;2023-02-14T09:34:16;11.48;;;6.47;;
78122;SDS011;67376;44.802;10.332;2023-02-14T09:36:42;12.75;;;6.63;;
78122;SDS011;67376;44.802;10.332;2023-02-14T09:39:26;11.68;;;7.03;;
78122;SDS011;67376;44.802;10.332;2023-02-14T09:47:32;13.40;;;7.72;;
78122;SDS011;67376;44.802;10.332;2023-02-14T09:49:59;13.70;;;6.53;;
78122;SDS011;67376;44.802;10.332;2023-02-14T09:52:26;13.68;;;7.25;;
78122;SDS011;67376;44.802;10.332;2023-02-14T09:54:54;13.15;;;6.90;;
78122;SDS011;67376;44.802;10.332;2023-02-14T09:57:38;16.13;;;8.60;;
78122;SDS011;67376;44.802;10.332;2023-02-14T10:00:26;12.27;;;6.70;;
78122;SDS011;67376;44.802;10.332;2023-02-14T10:05:36;14.00;;;7.68;;
78122;SDS011;67376;44.802;10.332;2023-02-14T10:08:18;15.82;;;7.70;;
78122;SDS011;67376;44.802;10.332;2023-02-14T10:11:10;16.50;;;7.88;;
78122;SDS011;67376;44.802;10.332;2023-02-14T10:13:41;14.35;;;7.50;;
78122;SDS011;67376;44.802;10.332;2023-02-14T10:16:23;16.17;;;8.82;;
78122;SDS011;67376;44.802;10.332;2023-02-14T10:18:53;17.38;;;8.25;;
78122;SDS011;67376;44.802;10.332;2023-02-14T10:23:57;14.52;;;7.35;;
78122;SDS011;67376;44.802;10.332;2023-02-14T10:26:47;14.00;;;8.05;;
78122;SDS011;67376;44.802;10.332;2023-02-14T10:29:15;15.48;;;8.02;;
78122;SDS011;67376;44.802;10.332;2023-02-14T10:42:37;15.75;;;7.75;;
78122;SDS011;67376;44.802;10.332;2023-02-14T10:50:57;15.35;;;8.35;;
78122;SDS011;67376;44.802;10.332;2023-02-14T10:58:49;15.30;;;8.32;;
78122;SDS011;67376;44.802;10.332;2023-02-14T11:01:17;14.02;;;9.02;;
78122;SDS011;67376;44.802;10.332;2023-02-14T11:03:53;15.68;;;8.48;;
78122;SDS011;67376;44.802;10.332;2023-02-14T11:06:27;18.10;;;8.98;;
78122;SDS011;67376;44.802;10.332;2023-02-14T11:08:53;15.60;;;8.32;;
78122;SDS011;67376;44.802;10.332;2023-02-14T11:11:20;15.15;;;8.27;;
78122;SDS011;67376;44.802;10.332;2023-02-14T11:13:50;16.25;;;8.35;;
78122;SDS011;67376;44.802;10.332;2023-02-14T11:16:30;18.65;;;9.07;;
78122;SDS011;67376;44.802;10.332;2023-02-14T11:19:07;15.82;;;9.40;;
78122;SDS011;67376;44.802;10.332;2023-02-14T11:21:38;14.25;;;8.15;;
78122;SDS011;67376;44.802;10.332;2023-02-14T11:26:53;14.20;;;7.50;;
78122;SDS011;67376;44.802;10.332;2023-02-14T11:29:29;16.23;;;7.60;;
78122;SDS011;67376;44.802;10.332;2023-02-14T11:32:05;14.30;;;7.80;;
78122;SDS011;67376;44.802;10.332;2023-02-14T11:34:37;15.32;;;8.35;;
78122;SDS011;67376;44.802;10.332;2023-02-14T11:37:15;15.32;;;8.38;;
78122;SDS011;67376;44.802;10.332;2023-02-14T11:39:48;15.57;;;8.73;;
78122;SDS011;67376;44.802;10.332;2023-02-14T11:42:30;16.00;;;8.82;;
78122;SDS011;67376;44.802;10.332;2023-02-14T11:44:59;16.67;;;8.85;;
78122;SDS011;67376;44.802;10.332;2023-02-14T11:47:26;16.83;;;8.57;;
78122;SDS011;67376;44.802;10.332;2023-02-14T11:50:05;16.38;;;7.95;;
78122;SDS011;67376;44.802;10.332;2023-02-14T11:52:47;17.20;;;8.10;;
78122;SDS011;67376;44.802;10.332;2023-02-14T11:55:28;19.52;;;9.07;;
78122;SDS011;67376;44.802;10.332;2023-02-14T11:58:00;17.67;;;9.07;;
78122;SDS011;67376;44.802;10.332;2023-02-14T12:00:27;18.52;;;9.07;;
78122;SDS011;67376;44.802;10.332;2023-02-14T12:02:55;14.95;;;8.45;;
78122;SDS011;67376;44.802;10.332;2023-02-14T12:05:30;15.95;;;8.15;;
78122;SDS011;67376;44.802;10.332;2023-02-14T12:07:58;16.27;;;8.95;;
78122;SDS011;67376;44.802;10.332;2023-02-14T12:15:39;14.40;;;7.88;;
78122;SDS011;67376;44.802;10.332;2023-02-14T12:26:34;15.60;;;8.77;;
78122;SDS011;67376;44.802;10.332;2023-02-14T12:29:11;16.10;;;9.20;;
78122;SDS011;67376;44.802;10.332;2023-02-14T12:31:53;16.23;;;8.95;;
78122;SDS011;67376;44.802;10.332;2023-02-14T12:34:23;17.58;;;8.75;;
78122;SDS011;67376;44.802;10.332;2023-02-14T12:47:18;16.80;;;9.05;;
78122;SDS011;67376;44.802;10.332;2023-02-14T12:55:56;17.90;;;9.50;;
78122;SDS011;67376;44.802;10.332;2023-02-14T13:06:49;18.38;;;9.38;;
78122;SDS011;67376;44.802;10.332;2023-02-14T13:17:36;19.27;;;9.05;;
78122;SDS011;67376;44.802;10.332;2023-02-14T13:20:19;15.38;;;8.20;;
78122;SDS011;67376;44.802;10.332;2023-02-14T13:22:55;17.33;;;8.82;;
78122;SDS011;67376;44.802;10.332;2023-02-14T13:25:25;18.45;;;9.73;;
78122;SDS011;67376;44.802;10.332;2023-02-14T13:28:03;18.75;;;9.25;;
78122;SDS011;67376;44.802;10.332;2023-02-14T13:30:32;17.25;;;9.50;;
78122;SDS011;67376;44.802;10.332;2023-02-14T13:33:01;17.85;;;9.40;;
78122;SDS011;67376;44.802;10.332;2023-02-14T13:35:30;19.88;;;9.73;;
78122;SDS011;67376;44.802;10.332;2023-02-14T13:38:07;18.35;;;8.82;;
78122;SDS011;67376;44.802;10.332;2023-02-14T13:40:39;16.85;;;8.85;;
78122;SDS011;67376;44.802;10.332;2023-02-14T13:43:05;17.88;;;9.02;;
78122;SDS011;67376;44.802;10.332;2023-02-14T13:48:18;16.52;;;9.05;;
78122;SDS011;67376;44.802;10.332;2023-02-14T13:50:54;15.80;;;8.68;;
78122;SDS011;67376;44.802;10.332;2023-02-14T14:12:21;15.85;;;9.60;;
78122;SDS011;67376;44.802;10.332;2023-02-14T14:20:38;17.77;;;9.55;;
78122;SDS011;67376;44.802;10.332;2023-02-14T14:25:56;18.25;;;10.18;;
78122;SDS011;67376;44.802;10.332;2023-02-14T14:28:23;20.77;;;10.30;;
78122;SDS011;67376;44.802;10.332;2023-02-14T14:30:50;17.98;;;9.52;;
78122;SDS011;67376;44.802;10.332;2023-02-14T14:36:06;19.08;;;9.50;;
78122;SDS011;67376;44.802;10.332;2023-02-14T14:38:43;17.80;;;10.13;;
78122;SDS011;67376;44.802;10.332;2023-02-14T14:41:10;19.42;;;10.25;;
78122;SDS011;67376;44.802;10.332;2023-02-14T14:43:37;19.48;;;9.52;;
78122;SDS011;67376;44.802;10.332;2023-02-14T14:46:06;18.85;;;9.18;;
78122;SDS011;67376;44.802;10.332;2023-02-14T14:48:36;19.15;;;9.55;;
78122;SDS011;67376;44.802;10.332;2023-02-14T14:51:07;18.80;;;10.15;;
78122;SDS011;67376;44.802;10.332;2023-02-14T14:53:47;18.90;;;8.98;;
78122;SDS011;67376;44.802;10.332;2023-02-14T14:56:21;16.25;;;8.65;;
78122;SDS011;67376;44.802;10.332;2023-02-14T14:58:49;20.23;;;10.18;;
78122;SDS011;67376;44.802;10.332;2023-02-14T15:01:31;17.45;;;8.90;;
78122;SDS011;67376;44.802;10.332;2023-02-14T15:09:43;19.13;;;10.30;;
78122;SDS011;67376;44.802;10.332;2023-02-14T15:12:09;16.30;;;8.50;;
78122;SDS011;67376;44.802;10.332;2023-02-14T15:14:54;18.15;;;9.63;;
78122;SDS011;67376;44.802;10.332;2023-02-14T15:17:23;17.45;;;9.38;;
78122;SDS011;67376;44.802;10.332;2023-02-14T15:19:51;18.73;;;9.35;;
78122;SDS011;67376;44.802;10.332;2023-02-14T15:25:09;16.27;;;8.52;;
78122;SDS011;67376;44.802;10.332;2023-02-14T15:27:38;17.48;;;9.93;;
78122;SDS011;67376;44.802;10.332;2023-02-14T15:30:06;18.42;;;10.57;;
78122;SDS011;67376;44.802;10.332;2023-02-14T15:32:47;18.40;;;9.02;;
78122;SDS011;67376;44.802;10.332;2023-02-14T15:35:15;19.13;;;10.18;;
78122;SDS011;67376;44.802;10.332;2023-02-14T15:37:42;17.80;;;9.43;;
78122;SDS011;67376;44.802;10.332;2023-02-14T15:40:17;18.13;;;8.82;;
78122;SDS011;67376;44.802;10.332;2023-02-14T15:42:47;17.55;;;9.40;;
78122;SDS011;67376;44.802;10.332;2023-02-14T15:47:55;17.70;;;8.90;;
78122;SDS011;67376;44.802;10.332;2023-02-14T15:50:27;18.15;;;9.70;;
78122;SDS011;67376;44.802;10.332;2023-02-14T15:52:58;16.65;;;8.80;;
78122;SDS011;67376;44.802;10.332;2023-02-14T15:55:48;17.88;;;9.93;;
78122;SDS011;67376;44.802;10.332;2023-02-14T15:58:16;20.52;;;10.20;;
78122;SDS011;67376;44.802;10.332;2023-02-14T16:00:44;16.20;;;9.10;;
78122;SDS011;67376;44.802;10.332;2023-02-14T16:03:11;17.10;;;9.55;;
78122;SDS011;67376;44.802;10.332;2023-02-14T16:05:45;17.88;;;9.88;;
78122;SDS011;67376;44.802;10.332;2023-02-14T16:13:31;16.73;;;9.15;;
78122;SDS011;67376;44.802;10.332;2023-02-14T16:16:07;16.42;;;9.23;;
78122;SDS011;67376;44.802;10.332;2023-02-14T16:18:38;18.35;;;9.95;;
78122;SDS011;67376;44.802;10.332;2023-02-14T16:21:11;18.25;;;9.45;;
78122;SDS011;67376;44.802;10.332;2023-02-14T16:23:44;16.17;;;9.38;;
78122;SDS011;67376;44.802;10.332;2023-02-14T16:26:11;18.35;;;9.23;;
78122;SDS011;67376;44.802;10.332;2023-02-14T16:28:37;17.45;;;9.38;;
78122;SDS011;67376;44.802;10.332;2023-02-14T16:31:04;19.48;;;9.60;;
78122;SDS011;67376;44.802;10.332;2023-02-14T16:33:38;17.20;;;9.30;;
78122;SDS011;67376;44.802;10.332;2023-02-14T16:38:45;17.73;;;10.38;;
78122;SDS011;67376;44.802;10.332;2023-02-14T16:41:12;16.77;;;9.82;;
78122;SDS011;67376;44.802;10.332;2023-02-14T16:46:07;19.20;;;10.27;;
78122;SDS011;67376;44.802;10.332;2023-02-14T16:48:36;21.33;;;9.90;;
78122;SDS011;67376;44.802;10.332;2023-02-14T16:51:01;18.80;;;9.80;;
78122;SDS011;67376;44.802;10.332;2023-02-14T16:53:26;20.67;;;9.63;;
78122;SDS011;67376;44.802;10.332;2023-02-14T16:55:53;19.73;;;9.85;;
78122;SDS011;67376;44.802;10.332;2023-02-14T16:58:22;17.95;;;9.20;;
78122;SDS011;67376;44.802;10.332;2023-02-14T17:00:53;20.15;;;10.73;;
78122;SDS011;67376;44.802;10.332;2023-02-14T17:03:18;18.52;;;10.40;;
78122;SDS011;67376;44.802;10.332;2023-02-14T17:05:43;18.85;;;9.70;;
78122;SDS011;67376;44.802;10.332;2023-02-14T17:08:09;21.52;;;10.90;;
78122;SDS011;67376;44.802;10.332;2023-02-14T17:10:37;18.75;;;10.25;;
78122;SDS011;67376;44.802;10.332;2023-02-14T17:13:04;18.75;;;10.88;;
78122;SDS011;67376;44.802;10.332;2023-02-14T17:15:30;20.90;;;10.30;;
78122;SDS011;67376;44.802;10.332;2023-02-14T17:18:00;20.42;;;10.68;;
78122;SDS011;67376;44.802;10.332;2023-02-14T17:20:28;16.77;;;9.82;;
78122;SDS011;67376;44.802;10.332;2023-02-14T17:22:55;20.38;;;9.80;;
78122;SDS011;67376;44.802;10.332;2023-02-14T17:25:21;18.83;;;9.63;;
78122;SDS011;67376;44.802;10.332;2023-02-14T17:27:47;18.92;;;9.85;;
78122;SDS011;67376;44.802;10.332;2023-02-14T17:30:13;19.80;;;10.07;;
78122;SDS011;67376;44.802;10.332;2023-02-14T17:32:39;21.00;;;9.88;;
78122;SDS011;67376;44.802;10.332;2023-02-14T17:35:05;21.55;;;10.75;;
78122;SDS011;67376;44.802;10.332;2023-02-14T17:37:33;17.90;;;9.60;;
78122;SDS011;67376;44.802;10.332;2023-02-14T17:40:01;20.77;;;11.20;;
78122;SDS011;67376;44.802;10.332;2023-02-14T17:42:29;17.45;;;9.25;;
78122;SDS011;67376;44.802;10.332;2023-02-14T17:44:56;18.15;;;9.23;;